Almaty Airport
UAAA : now visible

Airfield :











YOU CAN JOIN US ON...

 
LOGIN :

Register | Disclaimer

   EN    FR    IT 

 









Legend :    VFR   Marginal VFR   IFR   Intensive IFR   Very Intensive IFR
Visi :
Ceiling :
>= 8 km
>= 3000ft
5 to 8 km
1000 to 3000 ft
1500m to 5 km
500 to 1000 ft
800 to 1500m
200 to 500 ft
< 800m
< 200 ft
Symbols :   Thunderstorms  Fog  Heavy snow  Heavy precipitations  Wind > 20 kt







- Airport Elevation : 2234 ft
- IATA code : ALA


UAAA - Almaty

CURRENT METAR :
  • 210800Z VRB01MPS 5000 -RASN BR OVC027 00/M02 Q1031 R05L/5/0540 R05R/6/0245 NOSIG

EXPIRED METARs :
  • 210730Z 00000MPS 5000 BR OVC031 01/M00 Q1031 R05L/5/0540 R05R/6/0245 NOSIG
  • 210700Z 21001MPS 5000 BR OVC024 M00/M02 Q1031 R05L/5/0540 R05R/6/0245 NOSIG
  • 210630Z 00000MPS 5000 BR OVC025 M00/M02 Q1031 R05L/5/0540 R05R/6/0245 NOSIG
  • 210600Z 36002MPS 290V040 5000 BR OVC031 M00/M02 Q1030 R05L/5/0540 R05R/6/0245 NOSIG
  • 210530Z 33002MPS 5000 BR OVC033 M01/M02 Q1030 R05L/5/0540 R05R/6/0245 NOSIG

TAF TAF UAAA
Valid from the 21 at 06:00 until the 22 at 06:00 UTC


210500Z 2106/2206 34004MPS 4000 -SN BR BKN020 OVC100 TXM00/2108Z TNM08/2201Z
TEMPO 2106/2113 04004MPS 2200 SHSN BR BKN007 OVC015CB
BECMG 2113/2114 12004MPS 1500 BR
TEMPO 2113/2118 0400 -SN FZFG BKN003
TEMPO 2118/2206 0200 FZFG VV001
UAAA FIR / Asia



MET'MAP, your aeronautical weather chart ! - Copyright ORBIFLY December 2007 - Disclaimer

ORBIFLY MET'MAP TEAM :

Programming & Development : Alexandra Zaïnal
Concept & Development : Baudouin d'Aumeries
Co-Development & Prog : Marc-Olivier Méhu
Technical & hardware support : Manuel Goepfert

Contact : metmap@orbifly.com




SOURCES & CREDITS :

   NOAA       Earth
Advisory